| time (UTC) | temp F | wind direction | speed MPH | gust MPH | rain 1hr in | rain 24hr in | rain mn in | humidity % | barometer mb |
| 20260904232515 | 88 | 135 | 4.0 | 13.0 | 0.00 | 0.00 | 0.00 | 57 | 1013.3 |
| 20260904232015 | 88 | 135 | 6.0 | 12.0 | 0.00 | 0.00 | 0.00 | 58 | 1013.5 |
| 20260904231516 | 88 | 135 | 6.0 | 13.0 | 0.00 | 0.00 | 0.00 | 57 | 1013.5 |
| 20260904231015 | 88 | 135 | 6.0 | 13.0 | 0.00 | 0.00 | 0.00 | 55 | 1013.5 |
| 20260904230515 | 89 | 135 | 8.0 | 20.0 | 0.00 | 0.00 | 0.00 | 55 | 1013.6 |
| 20260904230016 | 91 | 135 | 9.0 | 20.0 | 0.00 | 0.00 | 0.00 | 53 | 1013.6 |
| 20260904225515 | 92 | 135 | 7.0 | 14.0 | 0.00 | 0.00 | 0.00 | 53 | 1013.6 |
| 20260904225015 | 93 | 180 | 4.0 | 10.0 | 0.00 | 0.00 | 0.00 | 48 | 1013.4 |
| 20260904224515 | 94 | 203 | 4.0 | 9.0 | 0.00 | 0.00 | 0.00 | 47 | 1013.3 |
| 20260904224015 | 94 | 158 | 4.0 | 11.0 | 0.00 | 0.00 | 0.00 | 48 | 1013.4 |
| 20260904223515 | 94 | 135 | 5.0 | 12.0 | 0.00 | 0.00 | 0.00 | 48 | 1013.4 |
| 20260904223015 | 94 | 158 | 4.0 | 12.0 | 0.00 | 0.00 | 0.00 | 48 | 1013.7 |
| 20260904222515 | 94 | 158 | 4.0 | 12.0 | 0.00 | 0.00 | 0.00 | 48 | 1013.7 |
| 20260904222015 | 94 | 203 | 3.0 | 9.0 | 0.00 | 0.00 | 0.00 | 44 | 1013.5 |
| 20260904221515 | 94 | 158 | 5.0 | 10.0 | 0.00 | 0.00 | 0.00 | 42 | 1013.5 |
| 20260904221015 | 95 | 135 | 5.0 | 13.0 | 0.00 | 0.00 | 0.00 | 43 | 1013.5 |
| 20260904220515 | 95 | 135 | 3.0 | 11.0 | 0.00 | 0.00 | 0.00 | 42 | 1013.5 |
| 20260904220015 | 94 | 135 | 4.0 | 9.0 | 0.00 | 0.00 | 0.00 | 41 | 1013.5 |
| 20260904215515 | 94 | 203 | 5.0 | 11.0 | 0.00 | 0.00 | 0.00 | 38 | 1013.6 |
| 20260904215015 | 94 | 203 | 4.0 | 8.0 | 0.00 | 0.00 | 0.00 | 42 | 1013.8 |
| 20260904214516 | 94 | 180 | 3.0 | 9.0 | 0.00 | 0.00 | 0.00 | 43 | 1014.0 |
| 20260904214015 | 94 | 158 | 4.0 | 10.0 | 0.00 | 0.00 | 0.00 | 42 | 1014.0 |
| 20260904213515 | 94 | 135 | 4.0 | 10.0 | 0.00 | 0.00 | 0.00 | 41 | 1013.9 |
| 20260904213015 | 94 | 113 | 3.0 | 10.0 | 0.00 | 0.00 | 0.00 | 44 | 1014.1 |
| 20260904212515 | 95 | 135 | 5.0 | 12.0 | 0.00 | 0.00 | 0.00 | 42 | 1014.2 |
| 20260904212035 | 94 | 158 | 5.0 | 10.0 | 0.00 | 0.00 | 0.00 | 42 | 1014.0 |
| 20260904211515 | 95 | 135 | 5.0 | 12.0 | 0.00 | 0.00 | 0.00 | 44 | 1014.2 |
| 20260904211015 | 94 | 135 | 5.0 | 12.0 | 0.00 | 0.00 | 0.00 | 42 | 1014.1 |
| 20260904210517 | 94 | 158 | 4.0 | 15.0 | 0.00 | 0.00 | 0.00 | 44 | 1014.3 |
| 20260904210015 | 94 | 158 | 4.0 | 9.0 | 0.00 | 0.00 | 0.00 | 45 | 1014.3 |
| 20260904205515 | 94 | 203 | 4.0 | 13.0 | 0.00 | 0.00 | 0.00 | 44 | 1014.4 |
| 20260904205015 | 94 | 203 | 5.0 | 14.0 | 0.00 | 0.00 | 0.00 | 42 | 1014.4 |
| 20260904204515 | 95 | 203 | 4.0 | 13.0 | 0.00 | 0.00 | 0.00 | 44 | 1014.4 |
| 20260904204015 | 95 | 135 | 5.0 | 11.0 | 0.00 | 0.00 | 0.00 | 45 | 1014.6 |
| 20260904203515 | 94 | 135 | 5.0 | 14.0 | 0.00 | 0.00 | 0.00 | 45 | 1014.6 |
| 20260904203015 | 94 | 180 | 4.0 | 10.0 | 0.00 | 0.00 | 0.00 | 46 | 1014.6 |
| 20260904202555 | 95 | 203 | 6.0 | 13.0 | 0.00 | 0.00 | 0.00 | 44 | 1014.7 |
| 20260904202035 | 95 | 158 | 3.0 | 8.0 | 0.00 | 0.00 | 0.00 | 43 | 1014.7 |
| 20260904201515 | 94 | 225 | 4.0 | 11.0 | 0.00 | 0.00 | 0.00 | 44 | 1014.7 |
| 20260904201015 | 94 | 158 | 4.0 | 10.0 | 0.00 | 0.00 | 0.00 | 41 | 1014.7 |
| 20260904200515 | 95 | 135 | 5.0 | 12.0 | 0.00 | 0.00 | 0.00 | 39 | 1014.9 |
| 20260904200015 | 93 | 135 | 4.0 | 10.0 | 0.00 | 0.00 | 0.00 | 43 | 1014.7 |
| 20260904195515 | 93 | 158 | 4.0 | 7.0 | 0.00 | 0.00 | 0.00 | 42 | 1014.8 |
| 20260904195015 | 93 | 158 | 4.0 | 10.0 | 0.00 | 0.00 | 0.00 | 46 | 1015.0 |
| 20260904194515 | 92 | 203 | 4.0 | 10.0 | 0.00 | 0.00 | 0.00 | 48 | 1014.9 |
| 20260904194015 | 91 | 180 | 4.0 | 9.0 | 0.00 | 0.00 | 0.00 | 49 | 1015.0 |
| 20260904193515 | 93 | 135 | 5.0 | 10.0 | 0.00 | 0.00 | 0.00 | 43 | 1015.1 |
| 20260904193035 | 95 | 158 | 5.0 | 11.0 | 0.00 | 0.00 | 0.00 | 44 | 1015.3 |
| 20260904192515 | 94 | 158 | 6.0 | 13.0 | 0.00 | 0.00 | 0.00 | 47 | 1015.3 |
| 20260904192015 | 92 | 158 | 4.0 | 9.0 | 0.00 | 0.00 | 0.00 | 50 | 1015.3 |
| 20260904191536 | 93 | 158 | 6.0 | 12.0 | 0.00 | 0.00 | 0.00 | 49 | 1015.5 |
| 20260904191035 | 93 | 158 | 6.0 | 13.0 | 0.00 | 0.00 | 0.00 | 46 | 1015.5 |
| 20260904190515 | 93 | 158 | 6.0 | 13.0 | 0.00 | 0.00 | 0.00 | 50 | 1015.5 |
| 20260904190017 | 90 | 225 | 6.0 | 15.0 | 0.00 | 0.00 | 0.00 | 59 | 1015.6 |
| 20260904185517 | 89 | 248 | 5.0 | 13.0 | 0.00 | 0.00 | 0.00 | 59 | 1015.6 |
| 20260904185017 | 90 | 203 | 5.0 | 11.0 | 0.00 | 0.00 | 0.00 | 58 | 1015.7 |
| 20260904184517 | 91 | 158 | 5.0 | 11.0 | 0.00 | 0.00 | 0.00 | 55 | 1015.9 |
| 20260904184017 | 91 | 158 | 5.0 | 13.0 | 0.00 | 0.00 | 0.00 | 55 | 1016.0 |
| 20260904183517 | 90 | 180 | 4.0 | 10.0 | 0.00 | 0.00 | 0.00 | 54 | 1015.8 |
| 20260904183017 | 90 | 158 | 4.0 | 9.0 | 0.00 | 0.00 | 0.00 | 52 | 1015.8 |
| 20260904182517 | 91 | 158 | 3.0 | 7.0 | 0.00 | 0.00 | 0.00 | 59 | 1015.9 |
| 20260904182035 | 91 | 225 | 4.0 | 10.0 | 0.00 | 0.00 | 0.00 | 60 | 1015.8 |
| 20260904181517 | 90 | 225 | 4.0 | 10.0 | 0.00 | 0.00 | 0.00 | 65 | 1015.9 |
| 20260904181017 | 91 | 203 | 4.0 | 10.0 | 0.00 | 0.00 | 0.00 | 62 | 1016.1 |
| 20260904180517 | 91 | 203 | 3.0 | 8.0 | 0.00 | 0.00 | 0.00 | 60 | 1016.1 |
| 20260904180019 | 92 | 158 | 5.0 | 10.0 | 0.00 | 0.00 | 0.00 | 59 | 1016.2 |
| 20260904175517 | 90 | 158 | 5.0 | 9.0 | 0.00 | 0.00 | 0.00 | 61 | 1016.3 |
| 20260904175017 | 89 | 135 | 5.0 | 11.0 | 0.00 | 0.00 | 0.00 | 63 | 1016.3 |
| 20260904174517 | 88 | 135 | 5.0 | 12.0 | 0.00 | 0.00 | 0.00 | 66 | 1016.3 |
| 20260904174017 | 87 | 135 | 4.0 | 10.0 | 0.00 | 0.00 | 0.00 | 67 | 1016.1 |
| 20260904173517 | 87 | 158 | 4.0 | 8.0 | 0.00 | 0.00 | 0.00 | 68 | 1016.3 |
| 20260904173017 | 87 | 248 | 3.0 | 8.0 | 0.00 | 0.00 | 0.00 | 69 | 1016.4 |
| 20260904172517 | 87 | 158 | 5.0 | 10.0 | 0.00 | 0.00 | 0.00 | 67 | 1016.5 |
| 20260904172037 | 87 | 180 | 4.0 | 8.0 | 0.00 | 0.00 | 0.00 | 67 | 1016.4 |
| 20260904171515 | 87 | 203 | 4.0 | 9.0 | 0.00 | 0.00 | 0.00 | 66 | 1016.4 |
| 20260904171037 | 87 | 180 | 4.0 | 8.0 | 0.00 | 0.00 | 0.00 | 68 | 1016.4 |
| 20260904170517 | 87 | 158 | 4.0 | 10.0 | 0.00 | 0.00 | 0.00 | 67 | 1016.3 |
| 20260904170017 | 87 | 180 | 4.0 | 9.0 | 0.00 | 0.00 | 0.00 | 67 | 1016.4 |
| 20260904165517 | 87 | 158 | 4.0 | 12.0 | 0.00 | 0.00 | 0.00 | 66 | 1016.3 |
| 20260904165017 | 87 | 158 | 3.0 | 9.0 | 0.00 | 0.00 | 0.00 | 67 | 1016.3 |
| 20260904164517 | 87 | 135 | 3.0 | 8.0 | 0.00 | 0.00 | 0.00 | 68 | 1016.3 |
| 20260904164017 | 87 | 225 | 3.0 | 7.0 | 0.00 | 0.00 | 0.00 | 68 | 1016.4 |
| 20260904163537 | 87 | 180 | 3.0 | 7.0 | 0.00 | 0.00 | 0.00 | 68 | 1016.3 |
| 20260904163017 | 87 | 158 | 5.0 | 8.0 | 0.00 | 0.00 | 0.00 | 68 | 1016.3 |
| 20260904162517 | 86 | 180 | 4.0 | 10.0 | 0.00 | 0.00 | 0.00 | 69 | 1016.3 |
| 20260904162016 | 86 | 158 | 3.0 | 7.0 | 0.00 | 0.00 | 0.00 | 68 | 1016.2 |
| 20260904161517 | 86 | 203 | 3.0 | 9.0 | 0.00 | 0.00 | 0.00 | 69 | 1016.2 |
| 20260904161016 | 85 | 203 | 3.0 | 9.0 | 0.00 | 0.00 | 0.00 | 69 | 1016.2 |
| 20260904160517 | 85 | 225 | 4.0 | 9.0 | 0.00 | 0.00 | 0.00 | 69 | 1015.9 |
| 20260904160016 | 85 | 248 | 4.0 | 10.0 | 0.00 | 0.00 | 0.00 | 71 | 1016.1 |
| 20260904155517 | 85 | 203 | 5.0 | 11.0 | 0.00 | 0.00 | 0.00 | 70 | 1016.1 |
| 20260904155016 | 85 | 225 | 5.0 | 11.0 | 0.00 | 0.00 | 0.00 | 70 | 1016.0 |
| 20260904154516 | 85 | 248 | 4.0 | 11.0 | 0.00 | 0.00 | 0.00 | 69 | 1016.0 |
| 20260904154016 | 85 | 203 | 4.0 | 10.0 | 0.00 | 0.00 | 0.00 | 70 | 1016.1 |
| 20260904153516 | 86 | 225 | 4.0 | 9.0 | 0.00 | 0.00 | 0.00 | 70 | 1016.1 |
| 20260904153016 | 86 | 248 | 4.0 | 10.0 | 0.00 | 0.00 | 0.00 | 70 | 1016.1 |
| 20260904152516 | 87 | 203 | 4.0 | 13.0 | 0.00 | 0.00 | 0.00 | 69 | 1015.9 |
| 20260904152016 | 87 | 203 | 3.0 | 7.0 | 0.00 | 0.00 | 0.00 | 71 | 1015.8 |
| 20260904151517 | 86 | 203 | 2.0 | 7.0 | 0.00 | 0.00 | 0.00 | 72 | 1015.8 |
| 20260904151016 | 86 | 180 | 2.0 | 9.0 | 0.00 | 0.00 | 0.00 | 72 | 1015.7 |
| 20260904150516 | 86 | 203 | 5.0 | 11.0 | 0.00 | 0.00 | 0.00 | 71 | 1016.0 |
| 20260904150037 | 85 | 225 | 4.0 | 10.0 | 0.00 | 0.00 | 0.00 | 76 | 1016.1 |
| 20260904145519 | 84 | 203 | 4.0 | 11.0 | 0.00 | 0.00 | 0.00 | 77 | 1015.8 |
| 20260904145017 | 83 | 225 | 1.0 | 7.0 | 0.00 | 0.00 | 0.00 | 78 | 1015.9 |
| 20260904144516 | 83 | 225 | 1.0 | 7.0 | 0.00 | 0.00 | 0.00 | 78 | 1016.0 |
| 20260904144036 | 82 | 203 | 3.0 | 10.0 | 0.00 | 0.00 | 0.00 | 79 | 1015.8 |
| 20260904143516 | 82 | 203 | 5.0 | 11.0 | 0.00 | 0.00 | 0.00 | 79 | 1015.7 |
| 20260904143016 | 82 | 225 | 5.0 | 12.0 | 0.00 | 0.00 | 0.00 | 78 | 1015.7 |
| 20260904142516 | 82 | 225 | 3.0 | 8.0 | 0.00 | 0.00 | 0.00 | 80 | 1015.7 |
| 20260904142016 | 82 | 225 | 2.0 | 6.0 | 0.00 | 0.00 | 0.00 | 81 | 1015.6 |
| 20260904141557 | 82 | 225 | 3.0 | 7.0 | 0.00 | 0.00 | 0.00 | 81 | 1015.8 |
| 20260904141016 | 82 | 270 | 3.0 | 7.0 | 0.00 | 0.00 | 0.00 | 81 | 1015.7 |
| 20260904140516 | 81 | 225 | 3.0 | 7.0 | 0.00 | 0.00 | 0.00 | 82 | 1015.7 |
| 20260904140016 | 81 | 225 | 4.0 | 9.0 | 0.00 | 0.00 | 0.00 | 82 | 1015.7 |
| 20260904135536 | 81 | 225 | 5.0 | 9.0 | 0.00 | 0.00 | 0.00 | 83 | 1015.7 |
| 20260904135016 | 81 | 225 | 4.0 | 8.0 | 0.00 | 0.00 | 0.00 | 84 | 1015.7 |
| 20260904134516 | 81 | 248 | 3.0 | 9.0 | 0.00 | 0.00 | 0.00 | 85 | 1015.9 |
| 20260904134036 | 80 | 225 | 3.0 | 7.0 | 0.00 | 0.00 | 0.00 | 85 | 1015.6 |
| 20260904133516 | 80 | 248 | 2.0 | 7.0 | 0.00 | 0.00 | 0.00 | 86 | 1015.6 |
| 20260904133016 | 80 | 248 | 2.0 | 6.0 | 0.00 | 0.00 | 0.00 | 86 | 1015.6 |
| 20260904132516 | 80 | 225 | 4.0 | 9.0 | 0.00 | 0.00 | 0.00 | 86 | 1015.5 |
| 20260904132016 | 80 | 248 | 2.0 | 5.0 | 0.00 | 0.00 | 0.00 | 87 | 1015.5 |
| 20260904131516 | 80 | 248 | 2.0 | 6.0 | 0.00 | 0.00 | 0.00 | 87 | 1015.5 |
| 20260904131016 | 80 | 225 | 3.0 | 7.0 | 0.00 | 0.00 | 0.00 | 87 | 1015.6 |
| 20260904130516 | 80 | 248 | 2.0 | 5.0 | 0.00 | 0.00 | 0.00 | 87 | 1015.5 |
| 20260904130016 | 80 | 248 | 2.0 | 6.0 | 0.00 | 0.00 | 0.00 | 87 | 1015.5 |
| 20260904125516 | 80 | 180 | 2.0 | 6.0 | 0.00 | 0.00 | 0.00 | 87 | 1015.6 |
| 20260904125016 | 80 | 158 | 1.0 | 4.0 | 0.00 | 0.00 | 0.00 | 87 | 1015.6 |
| 20260904124516 | 80 | 158 | 1.0 | 4.0 | 0.00 | 0.00 | 0.00 | 87 | 1015.6 |
| 20260904124016 | 80 | 135 | 1.0 | 4.0 | 0.00 | 0.00 | 0.00 | 86 | 1015.6 |
| 20260904123536 | 80 | 135 | 1.0 | 4.0 | 0.00 | 0.00 | 0.00 | 86 | 1015.7 |
| 20260904123056 | 80 | 135 | 1.0 | 3.0 | 0.00 | 0.00 | 0.00 | 86 | 1015.7 |
| 20260904122516 | 80 | 135 | 1.0 | 4.0 | 0.00 | 0.00 | 0.00 | 85 | 1015.6 |
| 20260904122016 | 80 | 135 | 4.0 | 8.0 | 0.00 | 0.00 | 0.00 | 85 | 1015.5 |
| 20260904121516 | 80 | 158 | 3.0 | 6.0 | 0.00 | 0.00 | 0.00 | 85 | 1015.3 |
| 20260904121016 | 80 | 135 | 3.0 | 7.0 | 0.00 | 0.00 | 0.00 | 85 | 1015.3 |
| 20260904120516 | 80 | 135 | 3.0 | 9.0 | 0.00 | 0.00 | 0.00 | 85 | 1015.2 |
| 20260904120016 | 80 | 135 | 3.0 | 9.0 | 0.00 | 0.00 | 0.00 | 85 | 1015.2 |
| 20260904115516 | 80 | 135 | 3.0 | 9.0 | 0.00 | 0.00 | 0.00 | 85 | 1015.1 |
| 20260904115018 | 80 | 135 | 3.0 | 7.0 | 0.00 | 0.00 | 0.00 | 84 | 1014.9 |
| 20260904114636 | 80 | 135 | 3.0 | 8.0 | 0.00 | 0.00 | 0.00 | 84 | 1015.0 |
| 20260904114016 | 80 | 135 | 4.0 | 11.0 | 0.00 | 0.00 | 0.00 | 84 | 1014.9 |
| 20260904113516 | 80 | 135 | 4.0 | 10.0 | 0.00 | 0.00 | 0.00 | 84 | 1014.9 |
| 20260904113016 | 80 | 135 | 4.0 | 11.0 | 0.00 | 0.00 | 0.00 | 84 | 1014.9 |
| 20260904112516 | 80 | 158 | 3.0 | 9.0 | 0.00 | 0.00 | 0.00 | 83 | 1014.8 |
| 20260904112016 | 80 | 135 | 3.0 | 9.0 | 0.00 | 0.00 | 0.00 | 83 | 1014.6 |
| 20260904111536 | 80 | 135 | 3.0 | 6.0 | 0.00 | 0.00 | 0.00 | 83 | 1014.5 |
| 20260904111016 | 80 | 135 | 2.0 | 8.0 | 0.00 | 0.00 | 0.00 | 83 | 1014.5 |
| 20260904110518 | 80 | 158 | 2.0 | 7.0 | 0.00 | 0.00 | 0.00 | 83 | 1014.6 |
| 20260904110017 | 81 | 158 | 3.0 | 7.0 | 0.00 | 0.00 | 0.00 | 83 | 1014.6 |
| 20260904105516 | 81 | 158 | 3.0 | 7.0 | 0.00 | 0.00 | 0.00 | 82 | 1014.6 |
| 20260904105036 | 81 | 135 | 2.0 | 5.0 | 0.00 | 0.00 | 0.00 | 82 | 1014.7 |
| 20260904104516 | 81 | 135 | 2.0 | 5.0 | 0.00 | 0.00 | 0.00 | 82 | 1014.6 |
| 20260904104016 | 81 | 158 | 3.0 | 7.0 | 0.00 | 0.00 | 0.00 | 82 | 1014.6 |
| 20260904103516 | 81 | 180 | 3.0 | 8.0 | 0.00 | 0.00 | 0.00 | 82 | 1014.7 |
| 20260904103036 | 81 | 135 | 3.0 | 9.0 | 0.00 | 0.00 | 0.00 | 81 | 1014.5 |
| 20260904102516 | 81 | 158 | 3.0 | 8.0 | 0.00 | 0.00 | 0.00 | 81 | 1014.5 |
| 20260904102016 | 81 | 180 | 2.0 | 7.0 | 0.00 | 0.00 | 0.00 | 81 | 1014.3 |
| 20260904101516 | 81 | 158 | 2.0 | 6.0 | 0.00 | 0.00 | 0.00 | 81 | 1014.3 |
| 20260904101016 | 81 | 180 | 3.0 | 8.0 | 0.00 | 0.00 | 0.00 | 81 | 1014.3 |
| 20260904100516 | 81 | 180 | 2.0 | 7.0 | 0.00 | 0.00 | 0.00 | 81 | 1014.2 |
| 20260904100016 | 81 | 180 | 3.0 | 8.0 | 0.00 | 0.00 | 0.00 | 81 | 1014.1 |
| 20260904095516 | 81 | 180 | 2.0 | 7.0 | 0.00 | 0.00 | 0.00 | 81 | 1014.3 |
| 20260904095016 | 81 | 180 | 2.0 | 5.0 | 0.00 | 0.00 | 0.00 | 81 | 1014.2 |
| 20260904094516 | 81 | 203 | 2.0 | 5.0 | 0.00 | 0.00 | 0.00 | 81 | 1014.3 |
| 20260904094016 | 81 | 180 | 3.0 | 9.0 | 0.00 | 0.00 | 0.00 | 80 | 1014.2 |
| 20260904093516 | 81 | 203 | 2.0 | 7.0 | 0.00 | 0.00 | 0.00 | 80 | 1014.1 |
| 20260904093016 | 81 | 203 | 3.0 | 9.0 | 0.00 | 0.00 | 0.00 | 80 | 1014.1 |
| 20260904092516 | 81 | 225 | 4.0 | 14.0 | 0.00 | 0.00 | 0.00 | 80 | 1014.1 |
| 20260904092016 | 81 | 248 | 2.0 | 12.0 | 0.00 | 0.00 | 0.00 | 80 | 1014.0 |
| 20260904091516 | 81 | 203 | 4.0 | 10.0 | 0.00 | 0.00 | 0.00 | 80 | 1014.2 |
| 20260904091016 | 81 | 180 | 3.0 | 10.0 | 0.00 | 0.00 | 0.00 | 80 | 1014.3 |
| 20260904090516 | 81 | 203 | 4.0 | 11.0 | 0.00 | 0.00 | 0.00 | 80 | 1014.4 |
| 20260904090016 | 81 | 225 | 3.0 | 9.0 | 0.00 | 0.00 | 0.00 | 80 | 1014.3 |
| 20260904085516 | 81 | 203 | 3.0 | 8.0 | 0.00 | 0.00 | 0.00 | 80 | 1014.2 |
| 20260904085016 | 81 | 180 | 3.0 | 9.0 | 0.00 | 0.00 | 0.00 | 80 | 1014.1 |
| 20260904084518 | 81 | 203 | 3.0 | 9.0 | 0.00 | 0.00 | 0.00 | 80 | 1014.2 |
| 20260904084016 | 81 | 203 | 2.0 | 5.0 | 0.00 | 0.00 | 0.00 | 80 | 1014.3 |
| 20260904083516 | 81 | 203 | 2.0 | 9.0 | 0.00 | 0.00 | 0.00 | 80 | 1014.2 |
| 20260904083016 | 81 | 180 | 3.0 | 9.0 | 0.00 | 0.00 | 0.00 | 80 | 1014.3 |
| 20260904082516 | 81 | 203 | 4.0 | 10.0 | 0.00 | 0.00 | 0.00 | 80 | 1014.3 |
| 20260904082015 | 81 | 180 | 4.0 | 13.0 | 0.00 | 0.00 | 0.00 | 80 | 1014.3 |
| 20260904081515 | 81 | 203 | 3.0 | 8.0 | 0.00 | 0.00 | 0.00 | 80 | 1014.3 |
| 20260904081016 | 81 | 225 | 2.0 | 10.0 | 0.00 | 0.00 | 0.00 | 80 | 1014.3 |
| 20260904080516 | 81 | 203 | 4.0 | 12.0 | 0.00 | 0.00 | 0.00 | 80 | 1014.3 |
| 20260904080015 | 81 | 203 | 4.0 | 14.0 | 0.00 | 0.00 | 0.00 | 80 | 1014.3 |
| 20260904075515 | 81 | 203 | 5.0 | 11.0 | 0.00 | 0.00 | 0.00 | 80 | 1014.3 |
| 20260904075016 | 81 | 180 | 4.0 | 10.0 | 0.00 | 0.00 | 0.00 | 80 | 1014.3 |
| 20260904074516 | 81 | 180 | 5.0 | 13.0 | 0.00 | 0.00 | 0.00 | 80 | 1014.2 |
| 20260904074015 | 81 | 180 | 4.0 | 11.0 | 0.00 | 0.00 | 0.00 | 80 | 1014.1 |
| 20260904073515 | 81 | 180 | 4.0 | 11.0 | 0.00 | 0.00 | 0.00 | 79 | 1014.2 |
| 20260904073015 | 81 | 180 | 4.0 | 11.0 | 0.00 | 0.00 | 0.00 | 79 | 1014.2 |
| 20260904072515 | 81 | 180 | 4.0 | 11.0 | 0.00 | 0.00 | 0.00 | 79 | 1014.2 |
| 20260904072015 | 81 | 180 | 4.0 | 9.0 | 0.00 | 0.00 | 0.00 | 79 | 1014.4 |
| 20260904071556 | 81 | 203 | 3.0 | 8.0 | 0.00 | 0.00 | 0.00 | 79 | 1014.4 |
| 20260904071016 | 81 | 248 | 3.0 | 8.0 | 0.00 | 0.00 | 0.00 | 79 | 1014.6 |
| 20260904070536 | 81 | 225 | 3.0 | 10.0 | 0.00 | 0.00 | 0.00 | 79 | 1014.5 |
| 20260904070015 | 81 | 158 | 2.0 | 7.0 | 0.00 | 0.00 | 0.00 | 79 | 1014.6 |
| 20260904065516 | 81 | 180 | 4.0 | 11.0 | 0.00 | 0.00 | 0.00 | 79 | 1014.5 |
| 20260904065015 | 81 | 158 | 3.0 | 8.0 | 0.00 | 0.00 | 0.00 | 79 | 1014.6 |
| 20260904064516 | 81 | 158 | 3.0 | 9.0 | 0.00 | 0.00 | 0.00 | 78 | 1014.5 |
| 20260904064015 | 81 | 158 | 4.0 | 9.0 | 0.00 | 0.00 | 0.00 | 78 | 1014.6 |
| 20260904063516 | 81 | 203 | 2.0 | 8.0 | 0.00 | 0.00 | 0.00 | 78 | 1014.6 |
| 20260904063016 | 81 | 203 | 3.0 | 8.0 | 0.00 | 0.00 | 0.00 | 78 | 1014.5 |
| 20260904062515 | 81 | 180 | 5.0 | 10.0 | 0.00 | 0.00 | 0.00 | 78 | 1014.5 |
| 20260904062016 | 81 | 158 | 5.0 | 12.0 | 0.00 | 0.00 | 0.00 | 78 | 1014.5 |
| 20260904061515 | 81 | 203 | 5.0 | 17.0 | 0.00 | 0.00 | 0.00 | 78 | 1014.6 |
| 20260904061015 | 81 | 180 | 5.0 | 14.0 | 0.00 | 0.00 | 0.00 | 78 | 1014.4 |
| 20260904060515 | 81 | 180 | 5.0 | 12.0 | 0.00 | 0.00 | 0.00 | 78 | 1014.6 |
| 20260904060015 | 81 | 180 | 5.0 | 12.0 | 0.00 | 0.00 | 0.00 | 78 | 1014.6 |
| 20260904055515 | 81 | 158 | 6.0 | 16.0 | 0.00 | 0.00 | 0.00 | 78 | 1014.7 |
| 20260904055015 | 81 | 158 | 4.0 | 12.0 | 0.00 | 0.00 | 0.00 | 78 | 1014.7 |
| 20260904054515 | 81 | 180 | 3.0 | 9.0 | 0.00 | 0.00 | 0.00 | 78 | 1014.7 |
| 20260904054038 | 81 | 158 | 3.0 | 9.0 | 0.00 | 0.00 | 0.00 | 78 | 1014.5 |
| 20260904053515 | 81 | 158 | 3.0 | 9.0 | 0.00 | 0.00 | 0.00 | 78 | 1014.7 |
| 20260904053055 | 81 | 158 | 5.0 | 12.0 | 0.00 | 0.00 | 0.00 | 78 | 1014.5 |
| 20260904052536 | 81 | 158 | 3.0 | 8.0 | 0.00 | 0.00 | 0.00 | 77 | 1014.4 |
| 20260904052015 | 81 | 158 | 4.0 | 11.0 | 0.00 | 0.00 | 0.00 | 77 | 1014.3 |
| 20260904051515 | 81 | 158 | 4.0 | 11.0 | 0.00 | 0.00 | 0.00 | 77 | 1014.4 |
| 20260904051015 | 81 | 158 | 6.0 | 12.0 | 0.00 | 0.00 | 0.00 | 77 | 1014.3 |
| 20260904050516 | 81 | 158 | 5.0 | 14.0 | 0.00 | 0.00 | 0.00 | 77 | 1014.3 |
| 20260904050015 | 81 | 158 | 6.0 | 15.0 | 0.00 | 0.00 | 0.00 | 77 | 1014.2 |
| 20260904045536 | 81 | 158 | 6.0 | 12.0 | 0.00 | 0.00 | 0.00 | 77 | 1014.2 |
| 20260904045016 | 81 | 158 | 5.0 | 14.0 | 0.00 | 0.00 | 0.00 | 77 | 1014.2 |
| 20260904044516 | 81 | 158 | 6.0 | 13.0 | 0.00 | 0.00 | 0.00 | 77 | 1014.2 |
| 20260904044016 | 81 | 135 | 6.0 | 14.0 | 0.00 | 0.00 | 0.00 | 76 | 1014.3 |
| 20260904043516 | 81 | 158 | 6.0 | 12.0 | 0.00 | 0.00 | 0.00 | 76 | 1014.2 |
| 20260904043016 | 81 | 158 | 3.0 | 7.0 | 0.00 | 0.00 | 0.00 | 76 | 1014.2 |
| 20260904042516 | 81 | 158 | 3.0 | 10.0 | 0.00 | 0.00 | 0.00 | 76 | 1014.2 |
| 20260904042016 | 82 | 135 | 4.0 | 10.0 | 0.00 | 0.00 | 0.00 | 76 | 1014.3 |
| 20260904041516 | 82 | 158 | 6.0 | 16.0 | 0.00 | 0.00 | 0.00 | 76 | 1014.2 |
| 20260904041016 | 82 | 158 | 5.0 | 13.0 | 0.00 | 0.00 | 0.00 | 75 | 1014.3 |
| 20260904040516 | 82 | 135 | 5.0 | 12.0 | 0.00 | 0.00 | 0.00 | 75 | 1014.2 |
| 20260904040016 | 82 | 135 | 5.0 | 11.0 | 0.00 | 0.00 | 0.00 | 75 | 1014.2 |
| 20260904035516 | 82 | 135 | 4.0 | 10.0 | 0.00 | 0.00 | 0.00 | 74 | 1014.3 |
| 20260904035016 | 82 | 135 | 5.0 | 14.0 | 0.00 | 0.00 | 0.00 | 74 | 1014.2 |
| 20260904034516 | 82 | 158 | 5.0 | 10.0 | 0.00 | 0.00 | 0.00 | 74 | 1014.2 |
| 20260904034036 | 82 | 158 | 3.0 | 9.0 | 0.00 | 0.00 | 0.00 | 73 | 1014.1 |
| 20260904033516 | 82 | 135 | 5.0 | 13.0 | 0.00 | 0.00 | 0.00 | 73 | 1014.1 |
| 20260904033016 | 82 | 135 | 4.0 | 9.0 | 0.00 | 0.00 | 0.00 | 72 | 1014.0 |
| 20260904032536 | 82 | 135 | 4.0 | 9.0 | 0.00 | 0.00 | 0.00 | 72 | 1014.0 |
| 20260904032016 | 82 | 135 | 3.0 | 9.0 | 0.00 | 0.00 | 0.00 | 71 | 1013.9 |
| 20260904031516 | 83 | 90 | 3.0 | 6.0 | 0.00 | 0.00 | 0.00 | 71 | 1013.9 |
| 20260904031016 | 83 | 158 | 3.0 | 8.0 | 0.00 | 0.00 | 0.00 | 71 | 1014.0 |
| 20260904030516 | 83 | 158 | 4.0 | 13.0 | 0.00 | 0.00 | 0.00 | 71 | 1013.8 |
| 20260904030016 | 83 | 135 | 6.0 | 12.0 | 0.00 | 0.00 | 0.00 | 71 | 1013.9 |
| 20260904025516 | 83 | 135 | 6.0 | 13.0 | 0.00 | 0.00 | 0.00 | 71 | 1013.8 |
| 20260904025016 | 83 | 135 | 4.0 | 9.0 | 0.00 | 0.00 | 0.00 | 70 | 1013.8 |
| 20260904024516 | 83 | 158 | 4.0 | 12.0 | 0.00 | 0.00 | 0.00 | 70 | 1013.6 |
| 20260904024016 | 83 | 135 | 5.0 | 13.0 | 0.00 | 0.00 | 0.00 | 70 | 1013.6 |
| 20260904023517 | 83 | 135 | 4.0 | 10.0 | 0.00 | 0.00 | 0.00 | 69 | 1013.7 |
| 20260904023036 | 83 | 135 | 4.0 | 10.0 | 0.00 | 0.00 | 0.00 | 69 | 1013.6 |
| 20260904022516 | 83 | 158 | 7.0 | 15.0 | 0.00 | 0.00 | 0.00 | 69 | 1013.6 |
| 20260904022016 | 84 | 135 | 6.0 | 12.0 | 0.00 | 0.00 | 0.00 | 68 | 1013.4 |
| 20260904021516 | 84 | 135 | 4.0 | 10.0 | 0.00 | 0.00 | 0.00 | 68 | 1013.3 |
| 20260904021021 | 84 | 135 | 6.0 | 12.0 | 0.00 | 0.00 | 0.00 | 68 | 1013.3 |
| 20260904020516 | 84 | 135 | 5.0 | 15.0 | 0.00 | 0.00 | 0.00 | 67 | 1013.2 |
| 20260904020016 | 84 | 135 | 7.0 | 16.0 | 0.00 | 0.00 | 0.00 | 67 | 1013.1 |
| 20260904015516 | 84 | 158 | 5.0 | 11.0 | 0.00 | 0.00 | 0.00 | 67 | 1013.0 |
| 20260904015016 | 84 | 135 | 4.0 | 10.0 | 0.00 | 0.00 | 0.00 | 66 | 1013.0 |
| 20260904014515 | 84 | 135 | 7.0 | 14.0 | 0.00 | 0.00 | 0.00 | 66 | 1013.0 |
| 20260904014016 | 84 | 135 | 5.0 | 11.0 | 0.00 | 0.00 | 0.00 | 66 | 1013.0 |
| 20260904013515 | 84 | 113 | 4.0 | 9.0 | 0.00 | 0.00 | 0.00 | 65 | 1013.0 |
| 20260904013016 | 85 | 113 | 3.0 | 6.0 | 0.00 | 0.00 | 0.00 | 65 | 1012.9 |
| 20260904012515 | 85 | 113 | 3.0 | 9.0 | 0.00 | 0.00 | 0.00 | 65 | 1013.0 |
| 20260904012016 | 85 | 135 | 3.0 | 8.0 | 0.00 | 0.00 | 0.00 | 65 | 1013.0 |
| 20260904011516 | 85 | 135 | 3.0 | 8.0 | 0.00 | 0.00 | 0.00 | 65 | 1012.9 |
| 20260904011015 | 85 | 135 | 4.0 | 10.0 | 0.00 | 0.00 | 0.00 | 65 | 1012.7 |
| 20260904010516 | 85 | 135 | 6.0 | 13.0 | 0.00 | 0.00 | 0.00 | 64 | 1012.6 |
| 20260904010015 | 85 | 135 | 6.0 | 12.0 | 0.00 | 0.00 | 0.00 | 64 | 1012.6 |
| 20260904005535 | 86 | 113 | 5.0 | 11.0 | 0.00 | 0.00 | 0.00 | 64 | 1012.7 |
| 20260904005015 | 86 | 113 | 5.0 | 13.0 | 0.00 | 0.00 | 0.00 | 64 | 1012.8 |
| 20260904004521 | 86 | 90 | 5.0 | 11.0 | 0.00 | 0.00 | 0.00 | 64 | 1012.8 |
| 20260904004016 | 86 | 135 | 6.0 | 13.0 | 0.00 | 0.00 | 0.00 | 63 | 1012.8 |
| 20260904003516 | 87 | 135 | 6.0 | 13.0 | 0.00 | 0.00 | 0.00 | 63 | 1012.7 |
| 20260904003016 | 87 | 135 | 6.0 | 13.0 | 0.00 | 0.00 | 0.00 | 63 | 1012.6 |
| 20260904002515 | 87 | 113 | 6.0 | 14.0 | 0.00 | 0.00 | 0.00 | 62 | 1012.7 |
| 20260904002016 | 87 | 135 | 6.0 | 13.0 | 0.00 | 0.00 | 0.00 | 62 | 1012.7 |
| 20260904001515 | 88 | 135 | 6.0 | 15.0 | 0.00 | 0.00 | 0.00 | 62 | 1012.7 |
| 20260904001036 | 88 | 135 | 5.0 | 14.0 | 0.00 | 0.00 | 0.00 | 62 | 1012.8 |
| 20260904000516 | 88 | 135 | 5.0 | 13.0 | 0.00 | 0.00 | 0.00 | 62 | 1012.8 |
| 20260904000015 | 88 | 113 | 6.0 | 13.0 | 0.00 | 0.01 | 0.00 | 61 | 1012.7 |
| 20260903235515 | 88 | 113 | 7.0 | 13.0 | 0.00 | 0.01 | 0.00 | 61 | 1012.6 |
| 20260903235016 | 88 | 135 | 7.0 | 17.0 | 0.00 | 0.01 | 0.00 | 61 | 1012.5 |
| 20260903234515 | 89 | 135 | 9.0 | 18.0 | 0.00 | 0.01 | 0.00 | 61 | 1012.3 |
| 20260903234015 | 89 | 90 | 8.0 | 18.0 | 0.00 | 0.01 | 0.00 | 61 | 1012.5 |
| 20260903233515 | 89 | 113 | 9.0 | 16.0 | 0.00 | 0.01 | 0.00 | 61 | 1012.4 |
| 20260903233037 | 89 | 113 | 8.0 | 18.0 | 0.00 | 0.01 | 0.00 | 61 | 1012.4 |
| 20260903232556 | 89 | 135 | 7.0 | 15.0 | 0.00 | 0.01 | 0.00 | 61 | 1012.3 |